Time;durP1;ratioP1;P1;durP2;ratioP2;P2;SDS_P1;SDS_P2;PMS_P1;PMS_P2;Temp;Humidity;BMP_temperature;BMP_pressure;BME280_temperature;BME280_humidity;BME280_pressure;Samples;Min_cycle;Max_cycle;Signal;HPM_P1;HPM_P2
2022/06/20 00:00:25;;;;;;;16.92;5.40;;;26.50;48.70;;;;;;5056224;28;20366;-74
2022/06/20 00:02:54;;;;;;;13.02;4.38;;;26.50;48.90;;;;;;5054369;28;20092;-75
2022/06/20 00:05:24;;;;;;;16.63;5.13;;;26.40;48.70;;;;;;5055879;28;20025;-75
2022/06/20 00:07:51;;;;;;;10.63;5.32;;;26.40;49.20;;;;;;5055063;28;20025;-74
2022/06/20 00:10:20;;;;;;;10.80;4.38;;;26.40;49.20;;;;;;5054649;28;20128;-74
2022/06/20 00:12:47;;;;;;;16.80;5.00;;;26.40;49.30;;;;;;5054551;28;20035;-74
2022/06/20 00:15:23;;;;;;;9.70;4.82;;;26.40;49.30;;;;;;5054849;28;20029;-74
2022/06/20 00:17:49;;;;;;;8.75;4.28;;;26.30;49.40;;;;;;5054547;28;20025;-74
2022/06/20 00:20:16;;;;;;;13.18;4.95;;;26.30;49.20;;;;;;5053850;28;20044;-74
2022/06/20 00:22:42;;;;;;;10.27;4.57;;;26.30;49.30;;;;;;5054866;28;20131;-75
2022/06/20 00:25:09;;;;;;;14.23;4.75;;;26.30;49.30;;;;;;5054202;28;20028;-75
2022/06/20 00:27:34;;;;;;;12.50;4.57;;;26.30;49.40;;;;;;5054573;28;20029;-75
2022/06/20 00:30:01;;;;;;;13.95;4.75;;;26.20;49.40;;;;;;5055652;28;20036;-74
2022/06/20 00:32:27;;;;;;;17.13;4.60;;;26.20;49.70;;;;;;5054513;28;20115;-75
2022/06/20 00:34:52;;;;;;;9.35;4.47;;;26.20;49.70;;;;;;5055626;28;20106;-74
2022/06/20 00:37:20;;;;;;;16.55;4.88;;;26.10;49.70;;;;;;5054884;28;20025;-74
2022/06/20 00:39:50;;;;;;;10.32;4.82;;;26.10;50.00;;;;;;5054355;28;20033;-74
2022/06/20 00:42:17;;;;;;;12.73;4.63;;;26.10;50.10;;;;;;5055633;28;20041;-74
2022/06/20 00:44:46;;;;;;;8.63;4.70;;;26.00;50.00;;;;;;5054180;28;20032;-75
2022/06/20 00:47:24;;;;;;;16.10;5.75;;;26.00;50.20;;;;;;5054285;28;20469;-74
2022/06/20 00:49:58;;;;;;;10.05;4.25;;;25.90;50.40;;;;;;5052487;28;20029;-75
2022/06/20 00:52:47;;;;;;;14.32;5.18;;;25.90;50.80;;;;;;5054244;28;20028;-75
2022/06/20 00:55:28;;;;;;;10.82;5.10;;;25.90;50.30;;;;;;5055453;28;20032;-75
2022/06/20 00:58:02;;;;;;;28.15;5.20;;;25.90;50.50;;;;;;5055228;28;20049;-74
2022/06/20 01:00:35;;;;;;;6.18;3.80;;;25.80;50.80;;;;;;5054433;28;20064;-74
2022/06/20 01:03:19;;;;;;;8.18;4.18;;;25.80;50.60;;;;;;5043362;28;20053;-75
2022/06/20 01:05:52;;;;;;;;;;;25.80;50.50;;;;;;5054184;28;20072;-74
2022/06/20 01:08:56;;;;;;;16.08;5.03;;;25.80;49.60;;;;;;5054949;28;19904;-75
2022/06/20 01:11:31;;;;;;;18.38;5.45;;;25.80;50.20;;;;;;4992767;28;20030;-75
2022/06/20 01:13:57;;;;;;;17.17;5.60;;;25.70;50.70;;;;;;4976305;28;20133;-75
2022/06/20 01:16:30;;;;;;;13.55;4.97;;;25.70;50.70;;;;;;4976817;28;20129;-74
2022/06/20 01:19:00;;;;;;;17.92;5.10;;;25.60;50.80;;;;;;4976636;28;20042;-75
2022/06/20 01:21:32;;;;;;;13.98;5.10;;;25.60;50.80;;;;;;4993128;28;20121;-74
2022/06/20 01:24:28;;;;;;;12.10;5.35;;;25.60;51.10;;;;;;4993077;28;20029;-75
2022/06/20 01:27:15;;;;;;;16.33;5.80;;;25.60;50.90;;;;;;4976105;28;20042;-74
2022/06/20 01:29:41;;;;;;;10.43;4.60;;;25.60;51.00;;;;;;4992936;28;20048;-74
2022/06/20 01:32:07;;;;;;;16.65;5.38;;;25.50;51.00;;;;;;4975471;28;20039;-75
2022/06/20 01:34:34;;;;;;;12.55;4.97;;;25.50;51.00;;;;;;4992884;28;20121;-74
2022/06/20 01:37:23;;;;;;;10.20;4.30;;;25.50;51.30;;;;;;4976176;28;20367;-74
2022/06/20 01:39:51;;;;;;;16.25;4.82;;;25.50;51.70;;;;;;4992316;28;20075;-75
2022/06/20 01:42:21;;;;;;;13.88;5.80;;;25.50;51.70;;;;;;4992689;28;20031;-75
2022/06/20 01:45:57;;;;;;;12.82;5.53;;;25.40;51.60;;;;;;4996833;28;20037;-74
2022/06/20 01:47:54;;;;;;;14.88;5.30;;;25.40;51.50;;;;;;5053176;28;20082;-74
2022/06/20 01:50:20;;;;;;;9.77;4.53;;;25.40;51.30;;;;;;5050905;28;20068;-75
2022/06/20 01:52:46;;;;;;;15.32;5.32;;;25.30;51.40;;;;;;5032622;28;20116;-74
2022/06/20 01:55:20;;;;;;;22.20;7.00;;;25.30;51.50;;;;;;5033806;28;20104;-76
2022/06/20 01:57:51;;;;;;;14.40;5.47;;;25.30;52.00;;;;;;5032847;28;20072;-75
2022/06/20 02:00:20;;;;;;;16.20;5.57;;;25.30;52.30;;;;;;5034170;28;20029;-74
2022/06/20 02:02:59;;;;;;;10.95;5.45;;;25.30;52.10;;;;;;5032473;28;20057;-75
2022/06/20 02:05:29;;;;;;;15.35;4.72;;;25.20;52.00;;;;;;5033810;28;20025;-74
2022/06/20 02:08:00;;;;;;;13.80;4.63;;;25.20;52.10;;;;;;5033794;28;20075;-74
2022/06/20 02:10:31;;;;;;;13.63;5.50;;;25.20;52.60;;;;;;5033611;28;20473;-74
2022/06/20 02:13:00;;;;;;;13.55;5.28;;;25.20;52.60;;;;;;5032694;28;20037;-75
2022/06/20 02:15:27;;;;;;;15.93;6.03;;;25.20;52.40;;;;;;5032299;28;20029;-75
2022/06/20 02:17:55;;;;;;;15.15;5.65;;;25.10;52.60;;;;;;5052789;28;20322;-74
2022/06/20 02:20:26;;;;;;;16.30;5.53;;;25.10;52.40;;;;;;5052411;28;20528;-74
2022/06/20 02:22:53;;;;;;;12.18;5.93;;;25.00;52.60;;;;;;5053538;28;20034;-74
2022/06/20 02:25:24;;;;;;;11.55;5.72;;;25.10;52.50;;;;;;5052287;28;20074;-74
2022/06/20 02:27:58;;;;;;;12.35;5.40;;;25.00;52.40;;;;;;5052723;28;20147;-74
2022/06/20 02:30:24;;;;;;;14.10;6.00;;;25.00;52.70;;;;;;5033357;28;20112;-74
2022/06/20 02:33:07;;;;;;;15.10;6.22;;;25.00;52.60;;;;;;5032309;28;20168;-74
2022/06/20 02:35:35;;;;;;;14.15;4.82;;;24.90;52.70;;;;;;5036726;28;20158;-74
2022/06/20 02:38:01;;;;;;;13.88;5.18;;;24.90;52.50;;;;;;5051833;28;20025;-75
2022/06/20 02:40:29;;;;;;;15.85;6.03;;;24.90;52.70;;;;;;5041021;28;20044;-74
2022/06/20 02:43:10;;;;;;;12.88;5.10;;;24.90;52.90;;;;;;5033538;28;20029;-74
2022/06/20 02:45:38;;;;;;;23.15;6.38;;;24.80;53.10;;;;;;5033199;28;20026;-74
2022/06/20 02:48:07;;;;;;;20.00;6.15;;;24.80;53.70;;;;;;5033471;28;20112;-75
2022/06/20 02:50:38;;;;;;;19.75;7.00;;;24.80;53.60;;;;;;5032085;28;20413;-74
2022/06/20 02:53:14;;;;;;;18.13;6.43;;;24.80;53.80;;;;;;5033535;28;20091;-74
2022/06/20 02:55:40;;;;;;;19.67;6.22;;;24.80;53.80;;;;;;5033359;28;20034;-74
2022/06/20 02:58:13;;;;;;;22.75;8.10;;;24.80;53.90;;;;;;5032141;28;20029;-75
2022/06/20 03:00:55;;;;;;;17.30;6.60;;;24.80;54.40;;;;;;5033304;28;20128;-74
2022/06/20 03:03:38;;;;;;;10.93;5.70;;;24.80;54.30;;;;;;5034186;28;20060;-73
2022/06/20 03:06:06;;;;;;;11.65;6.55;;;24.80;54.10;;;;;;5052015;28;20036;-74
2022/06/20 03:08:32;;;;;;;16.30;6.05;;;24.80;54.10;;;;;;5051762;28;20029;-74
2022/06/20 03:11:04;;;;;;;14.10;6.07;;;24.80;54.10;;;;;;5051198;28;20033;-74
2022/06/20 03:13:32;;;;;;;15.30;6.72;;;24.80;54.30;;;;;;5051821;28;20029;-75
2022/06/20 03:16:01;;;;;;;12.70;5.65;;;24.80;54.40;;;;;;5051536;28;20021;-74
2022/06/20 03:18:28;;;;;;;17.38;7.07;;;24.80;54.50;;;;;;5053060;28;20051;-74
2022/06/20 03:20:54;;;;;;;17.05;6.53;;;24.80;54.50;;;;;;5032907;28;20053;-73
2022/06/20 03:23:27;;;;;;;10.60;6.10;;;24.70;54.50;;;;;;5036568;28;20013;-74
2022/06/20 03:25:55;;;;;;;18.23;6.32;;;24.80;55.00;;;;;;5051666;28;20039;-76
2022/06/20 03:28:23;;;;;;;17.00;6.47;;;24.70;55.00;;;;;;5052562;28;20025;-74
2022/06/20 03:30:50;;;;;;;14.73;6.50;;;24.70;54.80;;;;;;5052850;28;20037;-74
2022/06/20 03:33:16;;;;;;;19.10;7.03;;;24.80;54.70;;;;;;5052786;28;20453;-73
2022/06/20 03:35:53;;;;;;;18.13;6.88;;;24.80;55.00;;;;;;5051589;28;20018;-74
2022/06/20 03:38:19;;;;;;;17.42;6.75;;;24.80;55.20;;;;;;5036055;28;20033;-73
2022/06/20 03:40:47;;;;;;;22.98;6.90;;;24.80;55.10;;;;;;5032627;28;20473;-73
2022/06/20 03:43:19;;;;;;;16.25;6.25;;;24.80;55.10;;;;;;5031716;28;20425;-73
2022/06/20 03:45:54;;;;;;;18.95;6.43;;;24.80;55.00;;;;;;5032938;28;20021;-74
2022/06/20 03:48:25;;;;;;;13.07;6.30;;;24.80;55.00;;;;;;5032691;28;20021;-73
2022/06/20 03:51:08;;;;;;;12.13;5.97;;;24.80;54.90;;;;;;5031761;28;20026;-74
2022/06/20 03:53:35;;;;;;;13.32;5.43;;;24.80;54.90;;;;;;5031338;28;20101;-74
2022/06/20 03:56:40;;;;;;;16.27;6.05;;;24.90;54.90;;;;;;5050127;28;20029;-73
2022/06/20 03:59:17;;;;;;;15.13;5.93;;;24.90;55.00;;;;;;5036237;28;20509;-73
2022/06/20 04:02:11;;;;;;;15.60;6.55;;;24.90;55.20;;;;;;5053759;28;20104;-74
2022/06/20 04:04:40;;;;;;;15.40;6.43;;;24.90;55.10;;;;;;5054456;28;20483;-74
2022/06/20 04:07:25;;;;;;;13.13;6.63;;;25.00;55.00;;;;;;5051406;28;20026;-75
2022/06/20 04:12:57;;;;;;;15.70;6.40;;;25.00;55.10;;;;;;5055465;28;20066;-77
2022/06/20 04:15:46;;;;;;;15.00;6.30;;;25.00;55.00;;;;;;5036382;28;20025;-75
2022/06/20 04:18:28;;;;;;;20.52;6.15;;;25.10;55.20;;;;;;5052173;28;20036;-76
2022/06/20 04:21:29;;;;;;;18.35;6.90;;;25.10;55.10;;;;;;5052276;28;20024;-76
2022/06/20 04:24:12;;;;;;;16.52;6.38;;;25.20;55.10;;;;;;5034469;28;20021;-75
2022/06/20 04:27:05;;;;;;;10.82;5.65;;;25.20;54.90;;;;;;5034516;28;20060;-74
2022/06/20 04:29:46;;;;;;;13.95;6.10;;;25.20;55.50;;;;;;5023693;28;20038;-75
2022/06/20 04:32:33;;;;;;;15.68;6.97;;;25.30;54.80;;;;;;5043257;28;20029;-74
2022/06/20 04:35:11;;;;;;;13.27;6.22;;;25.30;54.60;;;;;;5053965;28;20067;-74
2022/06/20 04:37:54;;;;;;;18.80;6.22;;;25.40;54.50;;;;;;5055688;28;20028;-75
2022/06/20 04:40:30;;;;;;;20.13;6.05;;;25.50;54.50;;;;;;5055322;28;20426;-74
2022/06/20 04:43:01;;;;;;;10.77;6.30;;;25.50;54.30;;;;;;5055632;28;20048;-74
2022/06/20 04:45:40;;;;;;;18.45;6.72;;;25.60;54.20;;;;;;5053008;28;20036;-74
2022/06/20 04:48:21;;;;;;;20.25;6.35;;;25.60;54.10;;;;;;5054192;28;20083;-75
2022/06/20 04:50:53;;;;;;;17.15;6.28;;;25.70;54.00;;;;;;5054063;28;20037;-75
2022/06/20 04:53:26;;;;;;;18.10;6.95;;;25.80;53.90;;;;;;5054073;28;20025;-74
2022/06/20 04:55:56;;;;;;;15.25;5.82;;;25.80;53.60;;;;;;5052672;28;20033;-75
2022/06/20 04:58:42;;;;;;;16.38;6.38;;;25.90;53.60;;;;;;5034011;28;20354;-74
2022/06/20 05:01:08;;;;;;;11.68;5.75;;;25.90;53.40;;;;;;5035490;28;20037;-75
2022/06/20 05:03:40;;;;;;;22.63;6.65;;;26.00;53.30;;;;;;5033219;28;20054;-75
2022/06/20 05:06:10;;;;;;;16.52;6.68;;;26.10;53.40;;;;;;5050294;28;20141;-74
2022/06/20 05:08:40;;;;;;;26.90;8.15;;;26.10;53.20;;;;;;5048998;28;20560;-75
2022/06/20 05:11:17;;;;;;;30.20;9.55;;;26.20;53.10;;;;;;5033318;28;20029;-75
2022/06/20 05:13:48;;;;;;;18.52;6.97;;;26.20;53.10;;;;;;5033711;28;20025;-76
2022/06/20 05:16:22;;;;;;;32.30;8.43;;;26.30;52.90;;;;;;5035001;28;20022;-74
2022/06/20 05:18:53;;;;;;;22.67;7.43;;;26.30;52.80;;;;;;5034068;28;20021;-75
2022/06/20 05:21:29;;;;;;;18.80;7.75;;;26.40;52.80;;;;;;5034884;28;20022;-75
2022/06/20 05:23:59;;;;;;;18.23;7.28;;;26.40;52.80;;;;;;5033255;28;20029;-75
2022/06/20 05:26:35;;;;;;;17.15;6.97;;;26.50;52.70;;;;;;5034150;28;20087;-74
2022/06/20 05:29:06;;;;;;;18.00;7.22;;;26.50;52.70;;;;;;5033152;28;20063;-74
2022/06/20 05:31:34;;;;;;;18.90;6.60;;;26.60;52.50;;;;;;5042742;28;20079;-74
2022/06/20 05:34:12;;;;;;;11.85;6.20;;;26.60;52.20;;;;;;5053067;28;20029;-74
2022/06/20 05:37:03;;;;;;;17.08;6.53;;;26.70;52.30;;;;;;5053234;28;20078;-74
2022/06/20 05:39:48;;;;;;;21.75;8.00;;;26.80;52.60;;;;;;5049428;28;20091;-74
2022/06/20 05:42:17;;;;;;;19.77;7.07;;;26.80;52.20;;;;;;5033984;28;20028;-74
2022/06/20 05:44:43;;;;;;;27.15;7.78;;;26.90;52.20;;;;;;5051070;28;20025;-74
2022/06/20 05:47:34;;;;;;;14.90;6.05;;;27.00;52.00;;;;;;5052846;28;20025;-74
2022/06/20 05:50:07;;;;;;;14.68;6.72;;;27.00;51.90;;;;;;5052652;28;20039;-74
2022/06/20 05:52:33;;;;;;;19.42;7.20;;;27.10;51.90;;;;;;5054210;28;20017;-74
2022/06/20 05:55:17;;;;;;;23.55;9.65;;;27.20;52.00;;;;;;5051809;28;20112;-74
2022/06/20 05:57:45;;;;;;;;;;;27.30;51.90;;;;;;5037784;28;20454;-74
2022/06/20 06:00:21;;;;;;;29.77;11.15;;;27.40;52.00;;;;;;5051418;28;19931;-73
2022/06/20 06:03:13;;;;;;;29.83;13.05;;;27.50;51.60;;;;;;5052600;28;20405;-74
2022/06/20 06:05:41;;;;;;;30.00;11.20;;;27.60;51.40;;;;;;5052666;28;20040;-74
2022/06/20 06:08:37;;;;;;;25.08;11.35;;;27.70;51.20;;;;;;5051793;28;20029;-73
2022/06/20 06:11:22;;;;;;;33.95;11.98;;;27.80;51.30;;;;;;5053973;28;20033;-74
2022/06/20 06:13:51;;;;;;;28.33;11.52;;;27.80;50.70;;;;;;5053882;28;20036;-75
2022/06/20 06:19:20;;;;;;;24.13;10.25;;;28.00;50.10;;;;;;5051260;28;20035;-74
2022/06/20 06:21:47;;;;;;;26.83;11.15;;;28.10;50.20;;;;;;5053973;28;20025;-74
2022/06/20 06:24:19;;;;;;;20.02;10.75;;;28.20;50.00;;;;;;5052515;28;20025;-74
2022/06/20 06:26:47;;;;;;;41.97;12.18;;;28.30;49.90;;;;;;5053299;28;20473;-73
2022/06/20 06:29:33;;;;;;;30.92;11.55;;;28.30;49.60;;;;;;5051862;28;20039;-76
2022/06/20 06:32:07;;;;;;;30.52;12.77;;;28.40;49.60;;;;;;5052388;28;20500;-74
2022/06/20 06:34:47;;;;;;;32.20;12.43;;;28.40;49.20;;;;;;5052220;28;20028;-74
2022/06/20 06:37:19;;;;;;;25.08;10.65;;;28.50;48.90;;;;;;5053419;28;20031;-74
2022/06/20 06:40:10;;;;;;;20.17;9.75;;;28.60;48.80;;;;;;5053430;28;20048;-74
2022/06/20 06:42:38;;;;;;;22.05;10.02;;;28.60;48.90;;;;;;5053448;28;20021;-74
2022/06/20 06:45:06;;;;;;;34.17;10.90;;;28.70;48.70;;;;;;5051161;28;20480;-74
2022/06/20 06:47:42;;;;;;;31.17;11.13;;;28.80;48.80;;;;;;5052543;28;20025;-74
2022/06/20 06:50:39;;;;;;;34.72;10.75;;;28.90;48.60;;;;;;5051887;28;20393;-74
2022/06/20 06:53:31;;;;;;;34.10;10.48;;;29.00;48.70;;;;;;5051486;28;20108;-74
2022/06/20 06:56:05;;;;;;;24.02;9.27;;;29.20;48.70;;;;;;5052993;28;20485;-74
2022/06/20 06:58:46;;;;;;;23.77;9.55;;;29.20;48.30;;;;;;5039073;28;20025;-74
2022/06/20 07:01:18;;;;;;;41.03;12.70;;;29.40;48.30;;;;;;5033129;28;20543;-74
2022/06/20 07:04:01;;;;;;;25.85;10.10;;;29.50;47.70;;;;;;5031506;28;20053;-74
2022/06/20 07:06:51;;;;;;;29.55;9.93;;;29.60;47.80;;;;;;5040464;28;20454;-73
2022/06/20 07:09:25;;;;;;;31.98;10.43;;;29.70;47.40;;;;;;5048905;28;20052;-74
2022/06/20 07:12:18;;;;;;;23.42;8.70;;;29.80;47.50;;;;;;5032121;28;20409;-74
2022/06/20 07:15:02;;;;;;;23.85;8.35;;;29.90;47.20;;;;;;5023472;28;20056;-73
2022/06/20 07:17:38;;;;;;;13.00;6.65;;;30.00;46.70;;;;;;5033361;28;20083;-75
2022/06/20 07:20:04;;;;;;;15.25;6.82;;;30.10;46.80;;;;;;5032723;28;20484;-75
2022/06/20 07:22:31;;;;;;;21.30;7.50;;;30.20;46.50;;;;;;5033156;28;20033;-75
2022/06/20 07:24:57;;;;;;;19.67;7.28;;;30.30;46.20;;;;;;5050361;28;20133;-75
2022/06/20 07:27:32;;;;;;;20.40;7.03;;;30.50;46.00;;;;;;5071384;28;20036;-75
2022/06/20 07:30:08;;;;;;;19.17;7.35;;;30.70;45.30;;;;;;5072317;28;20033;-73
2022/06/20 07:32:49;;;;;;;28.83;8.18;;;30.80;44.90;;;;;;5076775;28;20541;-75
2022/06/20 07:35:39;;;;;;;26.08;8.68;;;30.90;44.50;;;;;;5040909;28;20061;-75
2022/06/20 07:38:28;;;;;;;21.73;8.73;;;31.10;44.10;;;;;;5029104;28;20046;-75
2022/06/20 07:41:02;;;;;;;17.10;7.88;;;31.30;44.30;;;;;;5043394;28;20067;-75
2022/06/20 07:43:36;;;;;;;13.90;6.82;;;31.30;44.90;;;;;;5055358;28;20021;-74
2022/06/20 07:46:33;;;;;;;21.30;7.47;;;31.50;45.40;;;;;;5055117;28;20048;-74
2022/06/20 07:49:06;;;;;;;16.58;7.03;;;31.60;45.50;;;;;;5055189;28;20036;-75
2022/06/20 07:51:43;;;;;;;12.63;6.67;;;31.70;45.10;;;;;;5055467;28;20400;-75
2022/06/20 07:54:18;;;;;;;19.30;7.78;;;31.80;44.60;;;;;;5056715;28;20100;-73
2022/06/20 07:56:55;;;;;;;24.33;8.38;;;31.80;43.80;;;;;;5046940;28;20495;-75
2022/06/20 07:59:29;;;;;;;18.50;7.07;;;31.80;44.00;;;;;;5054726;28;20033;-75
2022/06/20 08:02:06;;;;;;;18.50;7.38;;;31.80;44.20;;;;;;5056539;28;20119;-75
2022/06/20 08:04:34;;;;;;;18.30;8.13;;;31.70;44.20;;;;;;5054613;28;20156;-74
2022/06/20 08:07:21;;;;;;;18.17;6.97;;;31.70;44.40;;;;;;5054945;28;20025;-75
2022/06/20 08:10:13;;;;;;;35.38;7.82;;;31.60;44.50;;;;;;5054873;28;20071;-75
2022/06/20 08:12:47;;;;;;;14.60;7.75;;;31.50;44.80;;;;;;5055984;28;20096;-75
2022/06/20 08:15:53;;;;;;;18.63;7.70;;;31.40;44.60;;;;;;5061394;28;20116;-75
2022/06/20 08:18:20;;;;;;;30.23;7.95;;;31.20;44.80;;;;;;4976844;28;20438;-77
2022/06/20 08:20:52;;;;;;;30.98;10.02;;;31.00;44.70;;;;;;4974304;28;20046;-75
2022/06/20 08:23:30;;;;;;;22.47;8.23;;;30.80;44.90;;;;;;4977837;28;20556;-76
2022/06/20 08:25:58;;;;;;;24.23;7.80;;;30.60;45.40;;;;;;4977992;28;20784;-75
2022/06/20 08:28:36;;;;;;;21.27;8.48;;;30.50;45.90;;;;;;4977965;28;20061;-76
2022/06/20 08:31:32;;;;;;;22.45;9.10;;;30.30;46.50;;;;;;4968877;28;20038;-74
2022/06/20 08:34:30;;;;;;;23.63;9.00;;;30.10;47.10;;;;;;4993566;28;20037;-76
2022/06/20 08:37:02;;;;;;;23.63;8.95;;;30.00;47.00;;;;;;4992939;28;20033;-76
2022/06/20 08:39:56;;;;;;;20.08;8.70;;;29.80;47.00;;;;;;4996970;28;20042;-76
2022/06/20 08:42:28;;;;;;;20.08;9.40;;;29.70;47.00;;;;;;4977273;28;20129;-76
2022/06/20 08:45:15;;;;;;;19.65;8.68;;;29.50;47.30;;;;;;4975862;28;20041;-77
2022/06/20 08:48:38;;;;;;;16.23;7.00;;;29.30;47.60;;;;;;4984963;28;20022;-77
2022/06/20 08:51:33;;;;;;;22.08;7.35;;;29.10;47.90;;;;;;4917504;28;20044;-77
2022/06/20 08:54:23;;;;;;;24.02;7.65;;;29.00;48.80;;;;;;4983345;28;20527;-77
2022/06/20 08:57:39;;;;;;;19.73;7.90;;;28.70;50.20;;;;;;4958221;28;20125;-76
2022/06/20 09:00:18;;;;;;;80.07;14.88;;;28.40;51.70;;;;;;4880649;29;20036;-73
2022/06/20 09:03:29;;;;;;;19.77;7.10;;;27.70;62.20;;;;;;4880872;29;20048;-72
2022/06/20 09:06:24;;;;;;;18.92;6.63;;;26.70;63.90;;;;;;4964374;28;20153;-73
2022/06/20 09:09:05;;;;;;;16.33;6.60;;;26.10;67.90;;;;;;4958019;28;20039;-74
2022/06/20 09:11:40;;;;;;;15.98;8.27;;;25.60;71.00;;;;;;4974421;28;20043;-74
2022/06/20 09:14:12;;;;;;;13.00;6.60;;;25.20;72.30;;;;;;4976775;28;20121;-75
2022/06/20 09:16:47;;;;;;;9.63;5.13;;;25.00;75.20;;;;;;4973704;28;20402;-73
2022/06/20 09:19:38;;;;;;;11.93;4.63;;;24.70;76.00;;;;;;4973715;28;20034;-74
2022/06/20 09:22:42;;;;;;;15.00;4.95;;;24.60;79.10;;;;;;5027943;28;20033;-75
2022/06/20 09:25:25;;;;;;;19.02;7.43;;;24.50;81.20;;;;;;5039147;28;20061;-74
2022/06/20 09:28:32;;;;;;;14.75;5.93;;;24.30;82.10;;;;;;5033734;28;20480;-74
2022/06/20 09:31:01;;;;;;;12.82;6.50;;;24.20;84.00;;;;;;5048843;28;20127;-73
2022/06/20 09:33:57;;;;;;;23.30;7.05;;;24.10;85.00;;;;;;5072507;28;20054;-74
2022/06/20 09:37:07;;;;;;;15.50;6.80;;;24.10;86.20;;;;;;5063227;28;20040;-73
2022/06/20 09:39:46;;;;;;;17.45;7.88;;;24.10;87.70;;;;;;5053214;28;20039;-73
2022/06/20 09:43:15;;;;;;;15.50;7.50;;;24.10;87.90;;;;;;5053244;28;20128;-74
2022/06/20 09:46:05;;;;;;;16.48;8.30;;;23.90;87.30;;;;;;4976511;28;20088;-74
2022/06/20 09:48:52;;;;;;;17.90;8.13;;;23.90;86.90;;;;;;4992701;28;20089;-73
2022/06/20 09:51:33;;;;;;;18.20;8.77;;;23.80;87.30;;;;;;5050181;28;20037;-74
2022/06/20 09:54:12;;;;;;;13.13;7.68;;;23.80;87.10;;;;;;5052162;28;20485;-74
2022/06/20 09:56:59;;;;;;;11.52;6.68;;;23.70;87.90;;;;;;5052794;28;20036;-74
2022/06/20 09:59:44;;;;;;;15.98;6.93;;;23.80;89.60;;;;;;5054093;28;20029;-73
2022/06/20 10:02:17;;;;;;;9.93;6.53;;;23.90;90.00;;;;;;5052619;28;20033;-74
2022/06/20 10:04:56;;;;;;;13.98;7.35;;;24.00;90.40;;;;;;5051815;28;20053;-76
2022/06/20 10:07:49;;;;;;;18.15;8.63;;;24.00;90.50;;;;;;5054102;28;20021;-75
2022/06/20 10:10:38;;;;;;;17.13;7.65;;;24.10;90.40;;;;;;5052416;28;20029;-75
2022/06/20 10:13:20;;;;;;;16.67;7.57;;;24.10;89.30;;;;;;5053866;28;20420;-75
2022/06/20 10:16:11;;;;;;;15.07;7.97;;;24.10;89.10;;;;;;5053222;28;20072;-76
2022/06/20 10:19:11;;;;;;;15.13;7.47;;;24.10;89.40;;;;;;5054432;28;20032;-76
2022/06/20 10:21:54;;;;;;;15.40;6.53;;;24.10;90.10;;;;;;5041295;28;20083;-76
2022/06/20 10:24:36;;;;;;;11.35;7.03;;;24.20;90.00;;;;;;5052998;28;20025;-75
2022/06/20 10:27:21;;;;;;;16.98;6.68;;;24.20;90.10;;;;;;5052201;28;20025;-76
2022/06/20 10:30:07;;;;;;;10.80;6.47;;;24.30;90.40;;;;;;5052100;28;20032;-75
2022/06/20 10:32:45;;;;;;;16.48;7.00;;;24.30;90.70;;;;;;5052032;28;20025;-75
2022/06/20 10:35:23;;;;;;;21.98;9.75;;;24.40;90.90;;;;;;5052105;28;20039;-74
2022/06/20 10:38:04;;;;;;;21.10;8.60;;;24.40;91.10;;;;;;5052072;28;20132;-75
2022/06/20 10:40:33;;;;;;;14.05;7.90;;;24.50;91.20;;;;;;5051903;28;20067;-75
2022/06/20 10:42:59;;;;;;;19.40;7.75;;;24.50;91.40;;;;;;5052922;28;20495;-76
2022/06/20 10:45:46;;;;;;;14.45;7.70;;;24.60;92.00;;;;;;5052972;28;20029;-75
2022/06/20 10:48:43;;;;;;;27.33;10.25;;;24.80;92.50;;;;;;5053252;28;20029;-76
2022/06/20 10:51:17;;;;;;;13.70;8.35;;;25.00;92.60;;;;;;5052920;28;20496;-76
2022/06/20 10:53:48;;;;;;;;;;;25.00;92.00;;;;;;5052439;28;20021;-76
2022/06/20 10:56:31;;;;;;;15.45;8.13;;;25.30;92.80;;;;;;5052175;28;19912;-75
2022/06/20 10:59:15;;;;;;;13.80;7.75;;;25.40;92.70;;;;;;5051957;28;20029;-76
2022/06/20 11:01:50;;;;;;;14.55;8.30;;;25.60;93.20;;;;;;5051824;28;20107;-77
2022/06/20 11:04:47;;;;;;;15.05;8.90;;;25.90;93.20;;;;;;5052623;28;20049;-78
2022/06/20 11:07:38;;;;;;;16.05;8.73;;;26.00;92.40;;;;;;5055981;28;20103;-76
2022/06/20 11:10:50;;;;;;;15.63;8.63;;;26.10;91.80;;;;;;5055775;28;20044;-77
2022/06/20 11:13:47;;;;;;;15.98;7.50;;;26.20;92.20;;;;;;5055963;28;20060;-76
2022/06/20 11:16:35;;;;;;;14.95;8.80;;;26.50;92.90;;;;;;5057117;28;20025;-76
2022/06/20 11:19:09;;;;;;;19.65;8.85;;;26.60;92.50;;;;;;5056913;28;20381;-76
2022/06/20 11:21:43;;;;;;;19.60;9.35;;;26.70;92.20;;;;;;5056088;28;20085;-76
2022/06/20 11:24:22;;;;;;;18.92;10.10;;;26.90;92.20;;;;;;5055655;28;20029;-76
2022/06/20 11:27:10;;;;;;;18.23;9.20;;;27.00;92.60;;;;;;5056838;28;20025;-76
2022/06/20 11:30:04;;;;;;;19.75;8.40;;;27.00;90.90;;;;;;5056841;28;20036;-76
2022/06/20 11:32:38;;;;;;;13.30;8.70;;;27.10;90.80;;;;;;5055632;28;20064;-76
2022/06/20 11:35:20;;;;;;;10.25;7.22;;;27.20;91.00;;;;;;5055469;28;20091;-76
2022/06/20 11:38:19;;;;;;;15.48;8.20;;;27.40;91.70;;;;;;5056886;28;20021;-75
2022/06/20 11:40:57;;;;;;;14.52;8.63;;;27.60;92.00;;;;;;5055416;28;20116;-77
2022/06/20 11:44:06;;;;;;;14.13;7.90;;;27.80;91.90;;;;;;5056457;28;20036;-76
2022/06/20 11:47:06;;;;;;;28.02;9.85;;;28.00;92.20;;;;;;5055450;28;20021;-77
2022/06/20 11:49:47;;;;;;;16.20;8.52;;;28.10;91.30;;;;;;5056337;28;20056;-76
2022/06/20 11:52:30;;;;;;;13.45;8.15;;;28.10;90.40;;;;;;5055141;28;20523;-76
2022/06/20 11:55:26;;;;;;;18.77;7.90;;;28.20;89.80;;;;;;5056380;28;20031;-76
2022/06/20 11:58:05;;;;;;;13.30;7.40;;;28.30;90.60;;;;;;5055304;28;20079;-76
2022/06/20 12:00:44;;;;;;;14.85;8.13;;;28.30;90.40;;;;;;5055054;28;20025;-77
2022/06/20 12:03:21;;;;;;;19.75;9.45;;;28.30;88.30;;;;;;5054623;28;20439;-76
2022/06/20 12:06:01;;;;;;;20.67;7.72;;;28.30;86.70;;;;;;5055011;28;20057;-77
2022/06/20 12:08:54;;;;;;;13.57;7.50;;;28.20;87.30;;;;;;5054757;28;20033;-76
2022/06/20 12:11:29;;;;;;;17.00;7.20;;;28.30;89.20;;;;;;5055848;28;20527;-76
2022/06/20 12:14:38;;;;;;;11.40;6.82;;;28.40;87.20;;;;;;5054740;28;20028;-77
2022/06/20 12:17:38;;;;;;;12.23;7.30;;;28.60;88.10;;;;;;4993223;28;20089;-76
2022/06/20 12:25:44;;;;;;;16.65;7.32;;;29.20;82.40;;;;;;4994275;28;20068;-76
2022/06/20 12:28:31;;;;;;;13.63;6.10;;;29.30;80.40;;;;;;4977730;28;20076;-77
2022/06/20 12:31:11;;;;;;;16.70;6.63;;;29.50;82.10;;;;;;4977531;28;20057;-76
2022/06/20 12:33:42;;;;;;;15.93;7.15;;;29.60;83.30;;;;;;4977690;28;20037;-76
2022/06/20 12:36:24;;;;;;;15.85;6.20;;;29.70;82.40;;;;;;4994063;28;20050;-77
2022/06/20 12:38:59;;;;;;;9.70;5.95;;;29.90;82.80;;;;;;4977639;28;20513;-76
2022/06/20 12:41:29;;;;;;;18.73;6.68;;;30.00;79.70;;;;;;4977696;28;20026;-76
2022/06/20 12:44:15;;;;;;;14.20;7.15;;;30.20;79.10;;;;;;4977404;28;20410;-76
2022/06/20 12:47:01;;;;;;;14.80;6.47;;;30.40;78.30;;;;;;4977771;28;20429;-76
2022/06/20 12:49:54;;;;;;;13.25;5.93;;;30.40;77.10;;;;;;4977330;28;20605;-76
2022/06/20 12:52:43;;;;;;;16.17;6.03;;;30.60;74.80;;;;;;5054059;28;20350;-77
2022/06/20 12:55:27;;;;;;;11.10;5.88;;;30.60;73.30;;;;;;5055248;28;20288;-77
2022/06/20 12:58:13;;;;;;;11.48;6.43;;;30.70;71.30;;;;;;5054146;28;20028;-77
2022/06/20 13:00:48;;;;;;;11.38;6.65;;;30.70;68.80;;;;;;5053818;28;20078;-77
2022/06/20 13:03:32;;;;;;;10.30;6.45;;;30.80;68.30;;;;;;5053552;28;20049;-77
2022/06/20 13:06:14;;;;;;;20.45;6.25;;;30.80;68.10;;;;;;5053628;28;20017;-77
2022/06/20 13:09:32;;;;;;;9.23;6.45;;;30.80;68.80;;;;;;5053685;28;20028;-77
2022/06/20 13:12:15;;;;;;;14.75;7.82;;;30.90;66.40;;;;;;5000262;28;20049;-77
2022/06/20 13:14:59;;;;;;;18.20;6.70;;;30.90;64.70;;;;;;5054677;28;20108;-77
2022/06/20 13:18:13;;;;;;;12.30;6.70;;;30.90;66.10;;;;;;5054053;28;20028;-77
2022/06/20 13:20:58;;;;;;;14.70;7.60;;;30.90;65.10;;;;;;5020202;28;20040;-77
2022/06/20 13:23:59;;;;;;;13.93;6.45;;;31.00;64.60;;;;;;5054358;28;20025;-77
2022/06/20 13:26:35;;;;;;;18.15;6.80;;;31.20;68.70;;;;;;5054597;28;20021;-78
2022/06/20 13:29:25;;;;;;;14.75;7.68;;;31.50;67.10;;;;;;5053193;28;20179;-78
2022/06/20 13:32:02;;;;;;;15.35;7.55;;;32.00;68.80;;;;;;5053007;28;20025;-78
2022/06/20 13:34:50;;;;;;;22.05;7.00;;;32.40;70.50;;;;;;5053128;28;20461;-77
2022/06/20 13:37:32;;;;;;;16.10;7.10;;;33.00;68.00;;;;;;5053174;28;20031;-78
2022/06/20 13:40:25;;;;;;;14.73;6.72;;;33.60;65.70;;;;;;5053000;28;20035;-78
2022/06/20 13:43:14;;;;;;;15.93;7.33;;;34.20;63.10;;;;;;5053014;28;20027;-79
2022/06/20 13:46:00;;;;;;;17.33;5.88;;;34.70;62.20;;;;;;5052901;28;20031;-78
2022/06/20 13:48:43;;;;;;;14.27;6.05;;;35.30;63.70;;;;;;5052559;28;20025;-79
2022/06/20 13:51:16;;;;;;;;;;;35.80;57.20;;;;;;5054498;28;20469;-76